createdAt,value
2022-09-15T00:01:00.926Z,99334.03
2022-09-15T00:04:03.823Z,99308.91
2022-09-15T00:07:06.511Z,99293.34
2022-09-15T00:10:10.367Z,99291.66
2022-09-15T00:13:12.846Z,99283.03
2022-09-15T00:16:17.325Z,99257.78
2022-09-15T00:19:19.906Z,99230.63
2022-09-15T00:22:24.007Z,99233.50
2022-09-15T00:25:27.248Z,99219.22
2022-09-15T00:28:31.614Z,99230.03
2022-09-15T00:31:34.488Z,99250.56
2022-09-15T00:34:37.496Z,99265.66
2022-09-15T00:37:40.167Z,99302.97
2022-09-15T00:40:50.785Z,99328.22
2022-09-15T00:43:53.632Z,99333.50
2022-09-15T00:47:18.126Z,99334.34
2022-09-15T00:50:20.956Z,99347.91
2022-09-15T00:53:25.037Z,99356.38
2022-09-15T00:56:28.797Z,99360.09
2022-09-15T00:59:33.428Z,99371.66
2022-09-15T01:02:36.697Z,99351.91
2022-09-15T01:05:42.194Z,99351.66
2022-09-15T01:08:47.971Z,99351.66
2022-09-15T01:11:53.308Z,99334.28
2022-09-15T01:14:55.667Z,99353.53
2022-09-15T01:18:17.419Z,99361.88
2022-09-15T01:21:24.095Z,99344.28
2022-09-15T01:24:27.061Z,99361.47
2022-09-15T01:27:48.350Z,99350.81
2022-09-15T01:31:20.994Z,99351.09
2022-09-15T01:34:26.236Z,99351.94
2022-09-15T01:37:31.411Z,99348.28
2022-09-15T01:40:39.285Z,99345.78
2022-09-15T01:43:55.035Z,99351.34
2022-09-15T01:47:03.293Z,99354.13
2022-09-15T01:50:09.572Z,99362.72
2022-09-15T01:53:15.231Z,99359.66
2022-09-15T01:56:18.388Z,99351.31
2022-09-15T01:59:20.839Z,99359.09
2022-09-15T02:02:31.986Z,99358.81
2022-09-15T02:05:35.356Z,99356.44
2022-09-15T02:08:40.719Z,99357.38
2022-09-15T02:11:52.207Z,99350.97
2022-09-15T02:15:08.638Z,99355.84
2022-09-15T02:18:14.176Z,99352.22
2022-09-15T02:21:21.276Z,99361.75
2022-09-15T02:24:30.355Z,99347.28
2022-09-15T02:27:37.480Z,99358.47
2022-09-15T02:30:42.034Z,99354.91
2022-09-15T02:33:47.345Z,99365.00
2022-09-15T02:36:53.155Z,99361.22
2022-09-15T02:39:58.075Z,99365.66
2022-09-15T02:43:02.290Z,99371.50
2022-09-15T02:46:04.964Z,99371.31
2022-09-15T02:49:07.863Z,99373.00
2022-09-15T02:52:10.759Z,99370.16
2022-09-15T02:55:13.945Z,99367.72
2022-09-15T02:58:19.257Z,99366.66
2022-09-15T03:01:26.899Z,99371.91
2022-09-15T03:04:29.687Z,99365.59
2022-09-15T03:07:32.772Z,99356.47
2022-09-15T03:10:35.381Z,99357.50
2022-09-15T03:13:38.317Z,99353.53
2022-09-15T03:16:41.160Z,99355.34
2022-09-15T03:19:45.133Z,99350.12
2022-09-15T03:22:48.641Z,99355.00
2022-09-15T03:25:51.450Z,99360.19
2022-09-15T03:28:54.028Z,99360.22
2022-09-15T03:31:57.263Z,99366.28
2022-09-15T03:35:00.031Z,99365.47
2022-09-15T03:38:03.264Z,99362.22
2022-09-15T03:41:10.088Z,99355.84
2022-09-15T03:44:12.792Z,99359.88
2022-09-15T03:47:15.635Z,99361.53
2022-09-15T03:50:19.585Z,99364.31
2022-09-15T03:53:22.704Z,99354.47
2022-09-15T03:56:33.542Z,99358.47
2022-09-15T03:59:36.090Z,99359.81
2022-09-15T04:02:38.871Z,99358.81
2022-09-15T04:05:42.230Z,99356.19
2022-09-15T04:08:44.976Z,99368.41
2022-09-15T04:11:47.980Z,99366.19
2022-09-15T04:14:50.358Z,99372.69
2022-09-15T04:17:53.461Z,99394.22
2022-09-15T04:21:03.333Z,99390.16
2022-09-15T04:24:06.469Z,99393.25
2022-09-15T04:27:09.122Z,99387.44
2022-09-15T04:30:12.636Z,99382.94
2022-09-15T04:33:15.192Z,99381.72
2022-09-15T04:36:19.847Z,99390.69
2022-09-15T04:39:22.509Z,99402.91
2022-09-15T04:42:25.820Z,99406.13
2022-09-15T04:45:28.726Z,99398.69
2022-09-15T04:48:32.115Z,99401.47
2022-09-15T04:51:34.720Z,99392.75
2022-09-15T04:54:37.442Z,99387.12
2022-09-15T04:57:40.001Z,99382.97
2022-09-15T05:00:43.570Z,99384.22
2022-09-15T05:03:46.517Z,99374.75
2022-09-15T05:06:49.234Z,99385.50
2022-09-15T05:09:52.180Z,99370.91
2022-09-15T05:12:55.071Z,99371.75
2022-09-15T05:16:03.671Z,99385.81
2022-09-15T05:19:06.915Z,99401.94
2022-09-15T05:22:09.426Z,99404.44
2022-09-15T05:25:12.587Z,99417.53
2022-09-15T05:28:15.325Z,99427.09
2022-09-15T05:31:19.563Z,99439.63
2022-09-15T05:34:22.347Z,99424.72
2022-09-15T05:37:25.622Z,99437.69
2022-09-15T05:40:28.306Z,99439.22
2022-09-15T05:43:32.175Z,99442.56
2022-09-15T05:46:34.726Z,99449.06
2022-09-15T05:49:37.652Z,99443.53
2022-09-15T05:52:40.254Z,99452.13
2022-09-15T05:55:43.082Z,99453.25
2022-09-15T05:58:46.913Z,99445.06
2022-09-15T06:01:49.730Z,99444.37
2022-09-15T06:04:52.726Z,99439.78
2022-09-15T06:07:56.115Z,99431.44
2022-09-15T06:11:19.807Z,99435.44
2022-09-15T06:14:22.543Z,99440.03
2022-09-15T06:17:25.474Z,99451.59
2022-09-15T06:20:28.589Z,99445.47
2022-09-15T06:23:31.467Z,99445.03
2022-09-15T06:26:34.562Z,99439.63
2022-09-15T06:29:37.304Z,99453.31
2022-09-15T06:32:40.083Z,99467.06
2022-09-15T06:35:43.448Z,99475.00
2022-09-15T06:38:46.496Z,99474.75
2022-09-15T06:42:02.156Z,99473.41
2022-09-15T06:45:06.050Z,99469.34
2022-09-15T06:48:23.849Z,99482.41
2022-09-15T06:51:31.357Z,99470.28
2022-09-15T06:54:34.737Z,99482.97
2022-09-15T06:57:37.191Z,99479.47
2022-09-15T07:00:40.067Z,99487.28
2022-09-15T07:03:43.566Z,99489.19
2022-09-15T07:06:46.293Z,99478.25
2022-09-15T07:09:49.305Z,99490.06
2022-09-15T07:12:52.049Z,99490.72
2022-09-15T07:15:58.869Z,99494.97
2022-09-15T07:19:03.683Z,99513.31
2022-09-15T07:22:06.353Z,99514.72
2022-09-15T07:25:09.350Z,99516.94
2022-09-15T07:28:12.493Z,99515.88
2022-09-15T07:31:16.932Z,99519.38
2022-09-15T07:34:19.575Z,99521.13
2022-09-15T07:37:22.293Z,99510.38
2022-09-15T07:40:26.280Z,99518.59
2022-09-15T07:43:29.476Z,99528.00
2022-09-15T07:46:32.824Z,99517.38
2022-09-15T07:49:35.612Z,99523.38
2022-09-15T07:52:38.172Z,99516.38
2022-09-15T07:55:41.066Z,99523.19
2022-09-15T07:58:43.672Z,99509.38
2022-09-15T08:01:46.790Z,99513.06
2022-09-15T08:04:49.732Z,99524.31
2022-09-15T08:07:52.586Z,99526.59
2022-09-15T08:10:55.835Z,99520.03
2022-09-15T08:14:00.371Z,99521.84
2022-09-15T08:17:08.144Z,99525.66
2022-09-15T08:20:13.488Z,99524.22
2022-09-15T08:23:17.406Z,99517.94
2022-09-15T08:26:20.202Z,99532.62
2022-09-15T08:29:23.169Z,99529.97
2022-09-15T08:32:25.893Z,99522.66
2022-09-15T08:35:29.723Z,99532.28
2022-09-15T08:38:32.676Z,99522.50
2022-09-15T08:41:37.932Z,99515.56
2022-09-15T08:44:43.979Z,99498.28
2022-09-15T08:47:48.228Z,99500.91
2022-09-15T08:50:52.438Z,99498.63
2022-09-15T08:53:58.503Z,99503.25
2022-09-15T08:57:01.600Z,99500.50
2022-09-15T09:00:04.769Z,99497.84
2022-09-15T09:03:26.701Z,99487.41
2022-09-15T09:06:32.889Z,99476.16
2022-09-15T09:09:35.267Z,99472.50
2022-09-15T09:12:50.146Z,99471.28
2022-09-15T09:16:03.894Z,99460.00
2022-09-15T09:19:28.931Z,99460.53
2022-09-15T09:22:35.919Z,99463.78
2022-09-15T09:25:39.585Z,99450.19
2022-09-15T09:28:46.289Z,99440.47
2022-09-15T09:31:50.690Z,99442.47
2022-09-15T09:35:15.555Z,99432.16
2022-09-15T09:38:21.666Z,99442.91
2022-09-15T09:41:35.777Z,99456.44
2022-09-15T09:44:39.533Z,99450.31
2022-09-15T09:47:43.004Z,99461.84
2022-09-15T09:50:47.559Z,99443.78
2022-09-15T09:53:53.548Z,99449.16
2022-09-15T09:56:57.507Z,99435.63
2022-09-15T10:00:00.021Z,99433.62
2022-09-15T10:03:12.001Z,99426.22
2022-09-15T10:06:24.842Z,99426.19
2022-09-15T10:09:32.545Z,99424.34
2022-09-15T10:12:40.684Z,99411.63
2022-09-15T10:15:43.617Z,99403.16
2022-09-15T10:18:48.994Z,99403.88
2022-09-15T10:21:56.174Z,99393.06
2022-09-15T10:25:00.596Z,99387.91
2022-09-15T10:28:26.446Z,99379.25
2022-09-15T10:31:31.551Z,99369.31
2022-09-15T10:34:36.211Z,99360.78
2022-09-15T10:37:55.873Z,99369.06
2022-09-15T10:41:05.137Z,99377.53
2022-09-15T10:44:23.111Z,99363.97
2022-09-15T10:47:45.346Z,99368.34
2022-09-15T10:51:07.727Z,99376.59
2022-09-15T10:54:34.700Z,99373.97
2022-09-15T10:58:01.952Z,99375.63
2022-09-15T11:01:08.133Z,99378.94
2022-09-15T11:04:11.440Z,99369.50
2022-09-15T11:07:17.058Z,99367.84
2022-09-15T11:10:25.869Z,99372.56
2022-09-15T11:13:28.626Z,99363.91
2022-09-15T11:16:34.634Z,99352.94
2022-09-15T11:19:46.633Z,99356.62
2022-09-15T11:23:08.209Z,99362.09
2022-09-15T11:26:15.478Z,99358.56
2022-09-15T11:29:36.720Z,99357.94
2022-09-15T11:32:39.395Z,99351.34
2022-09-15T11:35:45.341Z,99345.75
2022-09-15T11:39:10.023Z,99342.44
2022-09-15T11:42:22.561Z,99342.50
2022-09-15T11:45:26.768Z,99337.97
2022-09-15T11:48:41.041Z,99329.69
2022-09-15T11:51:50.678Z,99320.88
2022-09-15T11:55:05.040Z,99305.78
2022-09-15T11:58:26.173Z,99295.06
2022-09-15T12:01:32.524Z,99283.91
2022-09-15T12:04:39.147Z,99286.00
2022-09-15T12:07:46.015Z,99286.56
2022-09-15T12:10:52.278Z,99304.53
2022-09-15T12:13:55.734Z,99294.75
2022-09-15T12:16:59.140Z,99308.94
2022-09-15T12:20:05.681Z,99314.41
2022-09-15T12:23:12.084Z,99303.97
2022-09-15T12:26:19.390Z,99289.41
2022-09-15T12:29:22.096Z,99297.72
2022-09-15T12:32:28.756Z,99276.34
2022-09-15T12:35:33.541Z,99276.28
2022-09-15T12:38:36.155Z,99272.88
2022-09-15T12:41:45.758Z,99282.03
2022-09-15T12:44:48.447Z,99267.50
2022-09-15T12:47:51.220Z,99266.94
2022-09-15T12:50:55.285Z,99279.00
2022-09-15T12:54:00.963Z,99278.16
2022-09-15T12:57:04.755Z,99265.00
2022-09-15T13:00:16.896Z,99265.06
2022-09-15T13:03:28.874Z,99281.00
2022-09-15T13:06:34.201Z,99308.59
2022-09-15T13:09:44.230Z,99283.41
2022-09-15T13:12:53.605Z,99285.88
2022-09-15T13:15:56.954Z,99294.16
2022-09-15T13:19:41.135Z,99297.06
2022-09-15T13:22:45.567Z,99300.13
2022-09-15T13:25:48.353Z,99295.09
2022-09-15T13:28:55.579Z,99288.84
2022-09-15T13:32:19.469Z,99294.41
2022-09-15T13:35:31.076Z,99285.31
2022-09-15T13:38:33.796Z,99298.91
2022-09-15T13:41:36.489Z,99319.88
2022-09-15T13:44:54.476Z,99334.16
2022-09-15T13:48:11.464Z,99321.56
2022-09-15T13:51:23.711Z,99316.78
2022-09-15T13:54:26.119Z,99314.41
2022-09-15T14:00:53.896Z,99306.38
2022-09-15T14:04:03.214Z,99317.66
2022-09-15T14:07:05.494Z,99298.94
2022-09-15T14:10:18.911Z,99279.16
2022-09-15T14:13:22.560Z,99293.16
2022-09-15T14:16:30.448Z,99313.66
2022-09-15T14:19:34.771Z,99310.81
2022-09-15T14:22:40.658Z,99270.37
2022-09-15T14:25:45.390Z,99286.03
2022-09-15T14:28:49.928Z,99304.78
2022-09-15T14:31:53.231Z,99284.25
2022-09-15T14:34:58.959Z,99281.38
2022-09-15T14:38:01.287Z,99285.00
2022-09-15T14:41:05.407Z,99299.94
2022-09-15T14:48:01.110Z,99332.97
2022-09-15T14:51:12.247Z,99335.94
2022-09-15T14:54:19.068Z,99320.16
2022-09-15T14:57:26.526Z,99325.56
2022-09-15T15:00:55.981Z,99310.94
2022-09-15T15:04:02.456Z,99330.44
2022-09-15T15:07:05.100Z,99359.72
2022-09-15T15:10:14.662Z,99357.69
2022-09-15T15:13:17.740Z,99330.16
2022-09-15T15:16:24.177Z,99315.16
2022-09-15T15:19:34.623Z,99327.72
2022-09-15T15:22:38.418Z,99309.03
2022-09-15T15:25:41.900Z,99278.50
2022-09-15T15:28:44.157Z,99280.09
2022-09-15T15:31:46.742Z,99268.59
2022-09-15T15:34:58.518Z,99267.69
2022-09-15T15:38:07.135Z,99272.13
2022-09-15T15:41:17.984Z,99307.63
2022-09-15T15:44:20.581Z,99338.97
2022-09-15T15:47:24.521Z,99333.44
2022-09-15T15:50:28.376Z,99330.19
2022-09-15T15:53:30.944Z,99309.72
2022-09-15T15:56:37.671Z,99292.31
2022-09-15T15:59:40.274Z,99284.87
2022-09-15T16:02:43.647Z,99287.25
2022-09-15T16:05:48.051Z,99288.53
2022-09-15T16:08:51.088Z,99285.88
2022-09-15T16:11:54.132Z,99278.44
2022-09-15T16:14:56.571Z,99263.38
2022-09-15T16:17:59.611Z,99247.31
2022-09-15T16:21:01.931Z,99238.91
2022-09-15T16:24:04.944Z,99229.72
2022-09-15T16:27:13.711Z,99239.00
2022-09-15T16:30:17.534Z,99239.25
2022-09-15T16:33:20.096Z,99242.03
2022-09-15T16:36:22.579Z,99247.53
2022-09-15T16:39:25.826Z,99255.00
2022-09-15T16:42:28.407Z,99253.72
2022-09-15T16:45:38.066Z,99251.66
2022-09-15T16:48:44.151Z,99261.63
2022-09-15T16:51:46.415Z,99261.16
2022-09-15T16:54:52.192Z,99269.44
2022-09-15T16:57:54.535Z,99271.88
2022-09-15T17:00:57.803Z,99270.69
2022-09-15T17:04:01.128Z,99270.94
2022-09-15T17:07:03.651Z,99285.56
2022-09-15T17:10:06.308Z,99272.69
2022-09-15T17:13:11.604Z,99278.81
2022-09-15T17:16:15.390Z,99282.19
2022-09-15T17:19:17.995Z,99286.72
2022-09-15T17:22:20.286Z,99285.88
2022-09-15T17:25:37.033Z,99284.09
2022-09-15T17:28:40.820Z,99286.03
2022-09-15T17:31:43.521Z,99281.00
2022-09-15T17:34:46.343Z,99274.53
2022-09-15T17:37:49.299Z,99267.34
2022-09-15T17:40:55.458Z,99267.97
2022-09-15T17:43:58.308Z,99270.84
2022-09-15T17:47:00.598Z,99258.41
2022-09-15T17:50:03.157Z,99258.91
2022-09-15T17:53:12.655Z,99264.41
2022-09-15T17:56:15.471Z,99268.13
2022-09-15T17:59:18.211Z,99270.88
2022-09-15T18:02:21.442Z,99267.41
2022-09-15T18:05:28.829Z,99271.09
2022-09-15T18:08:32.915Z,99273.75
2022-09-15T18:11:35.467Z,99272.91
2022-09-15T18:14:38.272Z,99266.22
2022-09-15T18:17:41.053Z,99273.16
2022-09-15T18:20:44.157Z,99272.31
2022-09-15T18:23:46.789Z,99273.00
2022-09-15T18:26:49.108Z,99272.53
2022-09-15T18:29:52.137Z,99286.16
2022-09-15T18:32:54.425Z,99286.16
2022-09-15T18:35:58.945Z,99286.50
2022-09-15T18:39:01.503Z,99284.16
2022-09-15T18:42:04.307Z,99273.97
2022-09-15T18:45:09.351Z,99275.88
2022-09-15T18:48:13.266Z,99286.53
2022-09-15T18:51:23.804Z,99284.13
2022-09-15T18:54:26.546Z,99301.22
2022-09-15T18:57:28.964Z,99299.66
2022-09-15T19:00:32.114Z,99301.59
2022-09-15T19:03:34.683Z,99310.56
2022-09-15T19:06:37.617Z,99312.47
2022-09-15T19:09:40.157Z,99315.19
2022-09-15T19:12:43.364Z,99328.31
2022-09-15T19:15:48.148Z,99331.94
2022-09-15T19:18:52.135Z,99338.37
2022-09-15T19:21:54.737Z,99333.72
2022-09-15T19:24:57.267Z,99322.47
2022-09-15T19:27:59.498Z,99323.09
2022-09-15T19:31:02.324Z,99324.75
2022-09-15T19:34:04.866Z,99313.88
2022-09-15T19:37:12.148Z,99316.88
2022-09-15T19:40:18.407Z,99337.66
2022-09-15T19:43:20.981Z,99338.47
2022-09-15T19:46:24.297Z,99338.37
2022-09-15T19:49:27.117Z,99333.84
2022-09-15T19:52:31.073Z,99316.88
2022-09-15T19:55:34.327Z,99336.69
2022-09-15T19:58:36.707Z,99349.12
2022-09-15T20:01:39.402Z,99351.03
2022-09-15T20:04:42.187Z,99349.12
2022-09-15T20:07:46.963Z,99348.53
2022-09-15T20:10:50.187Z,99344.94
2022-09-15T20:13:53.136Z,99347.22
2022-09-15T20:16:58.743Z,99346.50
2022-09-15T20:20:03.398Z,99346.50
2022-09-15T20:23:06.096Z,99353.91
2022-09-15T20:26:10.713Z,99369.78
2022-09-15T20:29:13.697Z,99365.38
2022-09-15T20:32:15.954Z,99371.22
2022-09-15T20:35:18.496Z,99379.34
2022-09-15T20:38:21.102Z,99373.97
2022-09-15T20:41:25.435Z,99367.38
2022-09-15T20:44:27.724Z,99370.38
2022-09-15T20:47:30.229Z,99380.38
2022-09-15T20:50:33.059Z,99381.84
2022-09-15T20:53:35.908Z,99388.91
2022-09-15T20:56:38.276Z,99393.44
2022-09-15T20:59:40.957Z,99396.53
2022-09-15T21:02:43.393Z,99397.72
2022-09-15T21:05:46.034Z,99402.41
2022-09-15T21:08:49.038Z,99403.25
2022-09-15T21:11:53.607Z,99409.94
2022-09-15T21:14:57.878Z,99417.00
2022-09-15T21:18:03.740Z,99408.38
2022-09-15T21:21:08.806Z,99413.41
2022-09-15T21:24:11.332Z,99405.06
2022-09-15T21:27:29.633Z,99399.47
2022-09-15T21:30:32.495Z,99402.81
2022-09-15T21:33:35.334Z,99403.78
2022-09-15T21:36:38.079Z,99406.63
2022-09-15T21:39:40.282Z,99401.97
2022-09-15T21:42:42.755Z,99400.78
2022-09-15T21:45:45.031Z,99401.72
2022-09-15T21:48:47.839Z,99402.56
2022-09-15T21:51:50.254Z,99418.34
2022-09-15T21:54:53.251Z,99420.25
2022-09-15T21:57:55.471Z,99423.97
2022-09-15T22:00:58.108Z,99437.34
2022-09-15T22:04:05.595Z,99451.91
2022-09-15T22:07:07.797Z,99457.88
2022-09-15T22:10:12.611Z,99461.13
2022-09-15T22:13:14.907Z,99468.91
2022-09-15T22:16:19.201Z,99473.66
2022-09-15T22:19:21.645Z,99477.28
2022-09-15T22:22:24.236Z,99491.63
2022-09-15T22:25:26.762Z,99484.53
2022-09-15T22:28:29.221Z,99495.19
2022-09-15T22:31:31.585Z,99483.81
2022-09-15T22:34:34.342Z,99477.13
2022-09-15T22:37:36.733Z,99492.63
2022-09-15T22:40:39.345Z,99491.81
2022-09-15T22:43:42.970Z,99501.72
2022-09-15T22:46:45.936Z,99508.81
2022-09-15T22:49:48.269Z,99512.59
2022-09-15T22:52:51.913Z,99522.97
2022-09-15T22:56:04.937Z,99526.06
2022-09-15T22:59:07.612Z,99531.53
2022-09-15T23:02:09.930Z,99540.44
2022-09-15T23:05:12.852Z,99535.66
2022-09-15T23:08:15.193Z,99541.28
2022-09-15T23:11:17.931Z,99554.28
2022-09-15T23:14:20.239Z,99561.72
2022-09-15T23:17:22.947Z,99566.03
2022-09-15T23:20:25.416Z,99565.28
2022-09-15T23:23:28.217Z,99573.25
2022-09-15T23:26:30.398Z,99577.78
2022-09-15T23:29:32.865Z,99584.81
2022-09-15T23:32:35.197Z,99582.31
2022-09-15T23:35:37.725Z,99581.37
2022-09-15T23:38:41.217Z,99582.91
2022-09-15T23:41:43.902Z,99583.56
2022-09-15T23:44:46.175Z,99577.44
2022-09-15T23:47:48.647Z,99579.72
2022-09-15T23:50:51.111Z,99597.06
2022-09-15T23:53:53.710Z,99598.03
2022-09-15T23:56:55.959Z,99590.88
2022-09-15T23:59:58.553Z,99596.47
